createdAt,value
2022-08-28T00:01:01.498Z,89.70
2022-08-28T00:03:30.403Z,90.00
2022-08-28T00:05:58.402Z,90.00
2022-08-28T00:08:26.252Z,90.10
2022-08-28T00:10:53.876Z,90.20
2022-08-28T00:13:25.465Z,90.30
2022-08-28T00:15:58.161Z,90.70
2022-08-28T00:18:26.527Z,90.70
2022-08-28T00:20:54.085Z,90.70
2022-08-28T00:23:21.927Z,90.80
2022-08-28T00:25:49.691Z,90.80
2022-08-28T00:28:24.106Z,90.90
2022-08-28T00:30:55.677Z,91.10
2022-08-28T00:33:30.579Z,91.20
2022-08-28T00:35:58.506Z,91.90
2022-08-28T00:38:27.663Z,91.90
2022-08-28T00:40:59.294Z,92.30
2022-08-28T00:43:40.111Z,92.40
2022-08-28T00:46:15.283Z,93.10
2022-08-28T00:48:42.799Z,92.80
2022-08-28T00:51:30.136Z,92.90
2022-08-28T00:53:59.333Z,93.10
2022-08-28T00:56:29.230Z,93.50
2022-08-28T00:58:59.809Z,94.00
2022-08-28T01:01:27.307Z,94.80
2022-08-28T01:03:54.500Z,95.00
2022-08-28T01:06:21.938Z,95.20
2022-08-28T01:08:50.555Z,95.20
2022-08-28T01:11:19.569Z,94.90
2022-08-28T01:13:48.691Z,94.70
2022-08-28T01:16:19.098Z,94.90
2022-08-28T01:18:47.202Z,95.10
2022-08-28T01:21:49.327Z,94.60
2022-08-28T01:24:18.904Z,95.10
2022-08-28T01:26:47.286Z,94.50
2022-08-28T01:29:14.761Z,94.70
2022-08-28T01:31:43.026Z,94.50
2022-08-28T01:34:13.149Z,94.40
2022-08-28T01:36:41.118Z,94.50
2022-08-28T01:39:19.037Z,94.70
2022-08-28T01:41:49.007Z,95.10
2022-08-28T01:44:17.979Z,95.20
2022-08-28T01:46:46.381Z,95.00
2022-08-28T01:49:13.940Z,95.10
2022-08-28T01:51:42.605Z,95.30
2022-08-28T01:54:10.714Z,95.80
2022-08-28T01:56:40.334Z,96.30
2022-08-28T01:59:10.028Z,96.70
2022-08-28T02:01:38.069Z,97.40
2022-08-28T02:04:06.369Z,99.00
2022-08-28T02:06:34.192Z,99.90
2022-08-28T02:09:01.305Z,99.90
2022-08-28T02:11:30.680Z,99.90
2022-08-28T02:13:58.076Z,99.90
2022-08-28T02:16:27.301Z,99.90
2022-08-28T02:18:54.577Z,99.90
2022-08-28T02:21:22.037Z,99.90
2022-08-28T02:23:49.309Z,99.90
2022-08-28T02:26:16.448Z,99.90
2022-08-28T02:28:44.242Z,99.90
2022-08-28T02:31:11.987Z,99.90
2022-08-28T02:33:44.745Z,99.90
2022-08-28T02:36:14.624Z,99.90
2022-08-28T02:38:43.068Z,99.90
2022-08-28T02:41:11.490Z,99.90
2022-08-28T02:43:39.573Z,99.90
2022-08-28T02:46:07.568Z,99.90
2022-08-28T02:48:39.249Z,99.90
2022-08-28T02:51:11.433Z,99.90
2022-08-28T02:53:39.231Z,99.90
2022-08-28T02:56:07.195Z,99.90
2022-08-28T02:58:35.442Z,99.90
2022-08-28T03:01:05.541Z,99.90
2022-08-28T03:03:33.706Z,99.90
2022-08-28T03:06:03.484Z,99.90
2022-08-28T03:08:32.244Z,99.90
2022-08-28T03:11:00.343Z,99.90
2022-08-28T03:13:28.553Z,99.90
2022-08-28T03:15:56.279Z,99.90
2022-08-28T03:18:26.381Z,99.90
2022-08-28T03:20:55.615Z,99.90
2022-08-28T03:23:30.137Z,99.90
2022-08-28T03:26:11.423Z,99.90
2022-08-28T03:28:45.462Z,99.90
2022-08-28T03:31:16.450Z,99.90
2022-08-28T03:33:44.812Z,99.90
2022-08-28T03:36:15.615Z,99.90
2022-08-28T03:38:43.772Z,99.90
2022-08-28T03:41:11.997Z,99.90
2022-08-28T03:43:40.174Z,99.90
2022-08-28T03:46:09.227Z,99.90
2022-08-28T03:48:38.552Z,99.90
2022-08-28T03:51:12.362Z,99.90
2022-08-28T03:53:40.437Z,99.90
2022-08-28T03:56:12.375Z,99.90
2022-08-28T03:58:40.819Z,99.90
2022-08-28T04:01:08.245Z,99.90
2022-08-28T04:03:35.550Z,99.90
2022-08-28T04:06:03.226Z,99.90
2022-08-28T04:08:30.612Z,99.90
2022-08-28T04:11:00.762Z,99.90
2022-08-28T04:13:28.593Z,99.90
2022-08-28T04:16:01.086Z,99.90
2022-08-28T04:18:29.145Z,99.90
2022-08-28T04:21:07.904Z,99.90
2022-08-28T04:23:36.748Z,99.90
2022-08-28T04:26:08.121Z,99.90
2022-08-28T04:28:35.379Z,99.90
2022-08-28T04:31:03.609Z,99.90
2022-08-28T04:33:31.244Z,99.90
2022-08-28T04:36:03.210Z,99.90
2022-08-28T04:38:31.128Z,99.90
2022-08-28T04:40:58.952Z,99.90
2022-08-28T04:43:26.232Z,99.90
2022-08-28T04:45:53.422Z,99.90
2022-08-28T04:48:20.896Z,99.90
2022-08-28T04:50:49.699Z,99.90
2022-08-28T04:53:19.703Z,99.90
2022-08-28T04:55:54.224Z,99.90
2022-08-28T04:58:23.823Z,99.90
2022-08-28T05:00:52.457Z,99.90
2022-08-28T05:03:19.913Z,99.90
2022-08-28T05:05:50.115Z,99.90
2022-08-28T05:08:19.725Z,99.90
2022-08-28T05:10:47.220Z,99.90
2022-08-28T05:13:16.516Z,99.90
2022-08-28T05:15:47.779Z,99.90
2022-08-28T05:18:16.316Z,99.90
2022-08-28T05:20:46.621Z,99.90
2022-08-28T05:23:15.936Z,99.90
2022-08-28T05:25:47.957Z,99.90
2022-08-28T05:28:17.197Z,99.90
2022-08-28T05:30:45.617Z,99.90
2022-08-28T05:33:14.749Z,99.90
2022-08-28T05:35:44.989Z,99.90
2022-08-28T05:38:13.982Z,99.90
2022-08-28T05:40:49.149Z,99.90
2022-08-28T05:43:17.582Z,99.90
2022-08-28T05:45:44.890Z,99.90
2022-08-28T05:48:12.341Z,99.90
2022-08-28T05:50:44.503Z,99.90
2022-08-28T05:53:15.801Z,99.90
2022-08-28T05:55:43.110Z,99.90
2022-08-28T05:58:28.985Z,99.90
2022-08-28T06:01:14.176Z,99.90
2022-08-28T06:03:43.215Z,99.90
2022-08-28T06:06:12.269Z,99.90
2022-08-28T06:08:58.143Z,99.90
2022-08-28T06:11:30.305Z,99.90
2022-08-28T06:14:03.300Z,99.90
2022-08-28T06:16:32.206Z,99.90
2022-08-28T06:19:00.674Z,99.90
2022-08-28T06:21:29.097Z,99.90
2022-08-28T06:23:56.884Z,99.30
2022-08-28T06:26:24.222Z,99.00
2022-08-28T06:28:53.143Z,98.60
2022-08-28T06:31:23.784Z,98.40
2022-08-28T06:33:54.258Z,97.90
2022-08-28T06:36:22.781Z,97.50
2022-08-28T06:38:50.344Z,97.10
2022-08-28T06:41:18.431Z,96.70
2022-08-28T06:43:45.738Z,96.60
2022-08-28T06:46:13.289Z,96.50
2022-08-28T06:48:40.590Z,96.20
2022-08-28T06:51:10.636Z,96.00
2022-08-28T06:53:43.020Z,95.50
2022-08-28T06:56:26.237Z,95.10
2022-08-28T06:58:56.858Z,94.90
2022-08-28T07:01:29.769Z,94.80
2022-08-28T07:04:04.113Z,94.30
2022-08-28T07:06:34.675Z,93.60
2022-08-28T07:09:05.168Z,93.60
2022-08-28T07:11:34.050Z,93.20
2022-08-28T07:14:02.200Z,92.30
2022-08-28T07:16:33.019Z,91.80
2022-08-28T07:19:03.963Z,91.60
2022-08-28T07:21:38.229Z,91.30
2022-08-28T07:24:08.516Z,91.00
2022-08-28T07:26:37.005Z,90.50
2022-08-28T07:29:10.893Z,90.20
2022-08-28T07:31:41.949Z,89.80
2022-08-28T07:34:11.084Z,89.20
2022-08-28T07:36:38.735Z,87.40
2022-08-28T07:39:06.679Z,86.20
2022-08-28T07:41:39.228Z,85.00
2022-08-28T07:44:27.885Z,83.40
2022-08-28T07:47:00.803Z,82.10
2022-08-28T07:49:31.117Z,81.20
2022-08-28T07:52:06.243Z,80.70
2022-08-28T07:54:36.114Z,79.60
2022-08-28T07:57:05.096Z,78.80
2022-08-28T07:59:37.025Z,77.00
2022-08-28T08:02:06.135Z,76.20
2022-08-28T08:04:33.503Z,75.10
2022-08-28T08:07:03.479Z,73.60
2022-08-28T08:09:31.245Z,72.70
2022-08-28T08:11:59.928Z,72.40
2022-08-28T08:14:27.385Z,71.80
2022-08-28T08:16:54.735Z,70.90
2022-08-28T08:19:22.237Z,70.90
2022-08-28T08:21:54.616Z,70.00
2022-08-28T08:24:28.410Z,69.50
2022-08-28T08:27:01.082Z,67.90
2022-08-28T08:29:31.747Z,67.40
2022-08-28T08:32:07.969Z,67.20
2022-08-28T08:34:42.272Z,66.60
2022-08-28T08:37:09.753Z,65.00
2022-08-28T08:39:37.926Z,64.80
2022-08-28T08:42:10.620Z,64.20
2022-08-28T08:44:47.642Z,64.10
2022-08-28T08:47:22.378Z,63.30
2022-08-28T08:50:00.386Z,63.10
2022-08-28T08:52:50.021Z,61.90
2022-08-28T08:55:28.599Z,61.30
2022-08-28T08:58:13.174Z,61.10
2022-08-28T09:01:05.778Z,61.00
2022-08-28T09:04:02.349Z,60.30
2022-08-28T09:06:58.931Z,60.40
2022-08-28T09:09:40.898Z,59.90
2022-08-28T09:12:14.688Z,57.90
2022-08-28T09:15:13.015Z,58.80
2022-08-28T09:17:48.157Z,59.00
2022-08-28T09:20:20.221Z,58.50
2022-08-28T09:22:54.325Z,57.90
2022-08-28T09:25:54.155Z,57.50
2022-08-28T09:28:27.356Z,56.60
2022-08-28T09:31:14.270Z,56.70
2022-08-28T09:33:51.335Z,56.20
2022-08-28T09:36:24.402Z,55.70
2022-08-28T09:39:20.894Z,54.60
2022-08-28T09:42:11.258Z,54.80
2022-08-28T09:45:09.342Z,54.30
2022-08-28T09:47:54.193Z,53.60
2022-08-28T09:50:27.593Z,53.30
2022-08-28T09:52:57.416Z,53.70
2022-08-28T09:55:35.481Z,53.60
2022-08-28T09:58:03.901Z,52.90
2022-08-28T10:00:35.385Z,53.00
2022-08-28T10:03:16.283Z,51.30
2022-08-28T10:06:18.737Z,50.00
2022-08-28T10:09:16.830Z,50.70
2022-08-28T10:12:11.882Z,49.90
2022-08-28T10:15:09.673Z,50.00
2022-08-28T10:18:11.316Z,48.20
2022-08-28T10:21:20.414Z,47.90
2022-08-28T10:23:59.563Z,47.10
2022-08-28T10:26:35.134Z,47.50
2022-08-28T10:29:14.369Z,47.10
2022-08-28T10:32:02.408Z,47.50
2022-08-28T10:34:35.517Z,46.60
2022-08-28T10:37:25.221Z,46.90
2022-08-28T10:39:57.862Z,46.60
2022-08-28T10:42:36.478Z,46.40
2022-08-28T10:45:20.760Z,46.50
2022-08-28T10:48:06.890Z,46.10
2022-08-28T10:50:47.189Z,45.60
2022-08-28T10:53:20.165Z,45.60
2022-08-28T10:55:55.919Z,44.80
2022-08-28T10:58:25.500Z,43.50
2022-08-28T11:01:07.767Z,44.20
2022-08-28T11:03:49.377Z,44.20
2022-08-28T11:06:31.767Z,44.50
2022-08-28T11:09:22.396Z,43.40
2022-08-28T11:11:51.996Z,43.50
2022-08-28T11:14:39.367Z,43.30
2022-08-28T11:17:21.601Z,43.20
2022-08-28T11:20:22.832Z,43.90
2022-08-28T11:22:58.134Z,44.00
2022-08-28T11:25:33.444Z,44.20
2022-08-28T11:28:17.619Z,44.10
2022-08-28T11:30:58.465Z,43.70
2022-08-28T11:33:48.713Z,43.60
2022-08-28T11:36:21.641Z,42.80
2022-08-28T11:38:52.059Z,43.30
2022-08-28T11:41:26.544Z,43.30
2022-08-28T11:44:15.054Z,43.00
2022-08-28T11:46:47.899Z,43.20
2022-08-28T11:49:27.250Z,43.30
2022-08-28T11:52:06.397Z,42.90
2022-08-28T11:54:49.315Z,43.00
2022-08-28T11:57:31.812Z,43.30
2022-08-28T12:00:05.020Z,43.50
2022-08-28T12:02:41.386Z,43.70
2022-08-28T12:05:30.972Z,43.90
2022-08-28T12:08:04.991Z,43.90
2022-08-28T12:10:32.436Z,43.30
2022-08-28T12:13:09.703Z,42.80
2022-08-28T12:15:40.610Z,42.60
2022-08-28T12:18:10.840Z,42.80
2022-08-28T12:20:59.308Z,42.90
2022-08-28T12:23:37.581Z,42.60
2022-08-28T12:26:10.096Z,42.70
2022-08-28T12:28:46.709Z,43.10
2022-08-28T12:31:47.008Z,43.00
2022-08-28T12:35:06.455Z,42.80
2022-08-28T12:37:50.958Z,42.40
2022-08-28T12:40:28.934Z,42.60
2022-08-28T12:43:02.904Z,42.90
2022-08-28T12:45:39.351Z,41.80
2022-08-28T12:48:31.680Z,41.70
2022-08-28T12:51:08.131Z,41.80
2022-08-28T12:53:44.952Z,41.50
2022-08-28T12:56:14.699Z,41.40
2022-08-28T12:58:42.831Z,41.50
2022-08-28T13:01:12.489Z,41.40
2022-08-28T13:03:52.378Z,42.30
2022-08-28T13:06:36.499Z,42.40
2022-08-28T13:09:15.927Z,42.00
2022-08-28T13:11:49.541Z,40.40
2022-08-28T13:14:35.808Z,39.90
2022-08-28T13:17:03.778Z,39.30
2022-08-28T13:19:32.246Z,39.20
2022-08-28T13:22:05.422Z,39.00
2022-08-28T13:24:35.806Z,38.80
2022-08-28T13:27:15.808Z,37.80
2022-08-28T13:29:55.645Z,37.50
2022-08-28T13:32:28.444Z,36.50
2022-08-28T13:35:20.593Z,36.90
2022-08-28T13:37:56.553Z,37.10
2022-08-28T13:40:56.219Z,36.50
2022-08-28T13:43:16.460Z,36.30
2022-08-28T13:45:48.703Z,35.90
2022-08-28T13:48:22.287Z,35.30
2022-08-28T13:50:53.145Z,35.00
2022-08-28T13:53:21.341Z,34.40
2022-08-28T13:55:50.518Z,34.20
2022-08-28T13:58:18.000Z,34.40
2022-08-28T14:00:47.752Z,34.40
2022-08-28T14:03:34.034Z,34.40
2022-08-28T14:06:02.907Z,34.30
2022-08-28T14:08:30.725Z,33.70
2022-08-28T14:10:58.324Z,33.50
2022-08-28T14:13:27.725Z,33.60
2022-08-28T14:15:56.701Z,34.30
2022-08-28T14:18:25.585Z,35.00
2022-08-28T14:20:53.084Z,35.90
2022-08-28T14:23:20.315Z,36.60
2022-08-28T14:25:49.186Z,37.10
2022-08-28T14:28:19.157Z,37.60
2022-08-28T14:30:49.624Z,37.90
2022-08-28T14:33:20.689Z,38.40
2022-08-28T14:35:49.249Z,38.70
2022-08-28T14:38:16.937Z,38.90
2022-08-28T14:40:45.273Z,39.70
2022-08-28T14:43:14.069Z,40.20
2022-08-28T14:45:46.133Z,40.90
2022-08-28T14:48:15.118Z,40.80
2022-08-28T14:50:44.073Z,41.00
2022-08-28T14:53:11.791Z,41.20
2022-08-28T14:55:48.669Z,41.30
2022-08-28T14:58:19.001Z,41.60
2022-08-28T15:00:49.681Z,41.90
2022-08-28T15:03:18.667Z,42.00
2022-08-28T15:05:46.613Z,42.50
2022-08-28T15:08:16.888Z,42.50
2022-08-28T15:10:44.645Z,42.80
2022-08-28T15:13:12.837Z,42.80
2022-08-28T15:15:42.263Z,42.80
2022-08-28T15:18:11.226Z,42.80
2022-08-28T15:20:44.914Z,42.20
2022-08-28T15:23:14.858Z,41.70
2022-08-28T15:25:42.426Z,41.90
2022-08-28T15:28:10.071Z,41.70
2022-08-28T15:30:37.592Z,41.40
2022-08-28T15:33:05.235Z,41.10
2022-08-28T15:35:34.254Z,40.20
2022-08-28T15:38:01.582Z,39.60
2022-08-28T15:40:48.700Z,40.60
2022-08-28T15:43:19.665Z,40.90
2022-08-28T15:45:46.950Z,40.70
2022-08-28T15:48:14.478Z,40.10
2022-08-28T15:50:41.701Z,40.60
2022-08-28T15:53:10.103Z,40.50
2022-08-28T15:55:37.359Z,40.80
2022-08-28T15:58:14.006Z,40.80
2022-08-28T16:00:42.565Z,41.10
2022-08-28T16:03:10.053Z,41.50
2022-08-28T16:05:40.799Z,41.90
2022-08-28T16:08:10.356Z,42.60
2022-08-28T16:10:37.527Z,43.70
2022-08-28T16:13:06.637Z,44.50
2022-08-28T16:15:34.788Z,44.80
2022-08-28T16:18:01.963Z,45.30
2022-08-28T16:20:29.388Z,45.60
2022-08-28T16:22:56.483Z,46.00
2022-08-28T16:25:23.776Z,46.50
2022-08-28T16:27:50.938Z,46.90
2022-08-28T16:30:18.526Z,47.30
2022-08-28T16:32:46.920Z,47.50
2022-08-28T16:35:15.794Z,47.80
2022-08-28T16:37:43.543Z,47.90
2022-08-28T16:40:14.919Z,48.50
2022-08-28T16:42:42.450Z,48.70
2022-08-28T16:45:19.601Z,48.70
2022-08-28T16:47:46.819Z,49.60
2022-08-28T16:50:14.759Z,49.40
2022-08-28T16:52:42.214Z,50.10
2022-08-28T16:55:11.243Z,49.80
2022-08-28T16:57:38.875Z,50.20
2022-08-28T17:00:09.973Z,50.40
2022-08-28T17:02:37.137Z,50.70
2022-08-28T17:05:05.299Z,50.90
2022-08-28T17:07:34.298Z,51.10
2022-08-28T17:10:03.023Z,51.30
2022-08-28T17:12:30.184Z,51.60
2022-08-28T17:14:57.654Z,52.00
2022-08-28T17:17:24.974Z,52.30
2022-08-28T17:19:52.236Z,52.60
2022-08-28T17:22:32.280Z,53.00
2022-08-28T17:25:09.539Z,53.30
2022-08-28T17:27:36.957Z,53.60
2022-08-28T17:30:05.135Z,53.80
2022-08-28T17:32:32.533Z,54.10
2022-08-28T17:35:00.476Z,54.20
2022-08-28T17:37:28.232Z,54.40
2022-08-28T17:39:55.642Z,54.60
2022-08-28T17:42:23.561Z,54.80
2022-08-28T17:44:51.161Z,55.00
2022-08-28T17:47:18.683Z,55.30
2022-08-28T17:49:53.666Z,55.50
2022-08-28T17:52:20.860Z,55.80
2022-08-28T17:54:51.323Z,56.00
2022-08-28T17:57:18.961Z,56.40
2022-08-28T17:59:46.131Z,57.20
2022-08-28T18:02:16.587Z,57.50
2022-08-28T18:04:44.501Z,58.40
2022-08-28T18:07:11.964Z,58.10
2022-08-28T18:09:39.085Z,58.30
2022-08-28T18:12:12.448Z,58.60
2022-08-28T18:14:40.675Z,58.90
2022-08-28T18:17:09.176Z,59.00
2022-08-28T18:19:39.485Z,59.20
2022-08-28T18:22:10.277Z,59.40
2022-08-28T18:24:39.434Z,59.70
2022-08-28T18:27:08.163Z,59.80
2022-08-28T18:29:37.047Z,60.00
2022-08-28T18:32:05.872Z,60.20
2022-08-28T18:34:33.478Z,60.20
2022-08-28T18:37:01.593Z,60.50
2022-08-28T18:39:29.349Z,60.70
2022-08-28T18:41:57.936Z,60.90
2022-08-28T18:44:25.564Z,61.10
2022-08-28T18:46:53.071Z,61.40
2022-08-28T18:49:20.564Z,61.50
2022-08-28T18:51:48.174Z,61.80
2022-08-28T18:54:18.045Z,62.00
2022-08-28T18:56:46.561Z,62.10
2022-08-28T18:59:16.691Z,62.20
2022-08-28T19:01:44.065Z,62.30
2022-08-28T19:04:11.336Z,62.50
2022-08-28T19:06:40.611Z,62.60
2022-08-28T19:09:07.757Z,62.90
2022-08-28T19:11:35.938Z,62.90
2022-08-28T19:14:03.857Z,63.10
2022-08-28T19:16:32.259Z,63.20
2022-08-28T19:19:00.327Z,63.40
2022-08-28T19:21:29.265Z,63.60
2022-08-28T19:23:57.065Z,63.90
2022-08-28T19:26:26.016Z,64.30
2022-08-28T19:28:54.389Z,64.80
2022-08-28T19:31:21.854Z,66.40
2022-08-28T19:33:49.423Z,66.60
2022-08-28T19:36:18.392Z,67.70
2022-08-28T19:38:45.778Z,68.40
2022-08-28T19:41:14.289Z,68.60
2022-08-28T19:43:43.263Z,68.80
2022-08-28T19:46:19.831Z,68.30
2022-08-28T19:48:50.311Z,67.90
2022-08-28T19:51:22.469Z,68.30
2022-08-28T19:53:57.786Z,68.00
2022-08-28T19:56:28.086Z,67.70
2022-08-28T19:58:58.507Z,67.40
2022-08-28T20:01:29.941Z,67.20
2022-08-28T20:03:59.434Z,67.10
2022-08-28T20:06:27.908Z,67.10
2022-08-28T20:08:55.175Z,67.20
2022-08-28T20:11:30.307Z,67.30
2022-08-28T20:14:04.407Z,67.60
2022-08-28T20:16:35.896Z,67.80
2022-08-28T20:19:04.723Z,68.20
2022-08-28T20:21:37.098Z,68.40
2022-08-28T20:24:14.142Z,68.70
2022-08-28T20:26:41.725Z,69.10
2022-08-28T20:29:10.595Z,69.40
2022-08-28T20:31:40.669Z,69.80
2022-08-28T20:34:09.876Z,70.40
2022-08-28T20:36:37.793Z,71.20
2022-08-28T20:39:09.191Z,71.50
2022-08-28T20:41:38.023Z,72.80
2022-08-28T20:44:07.819Z,73.90
2022-08-28T20:46:40.473Z,75.40
2022-08-28T20:49:10.243Z,76.00
2022-08-28T20:51:54.551Z,76.70
2022-08-28T20:54:32.677Z,78.00
2022-08-28T20:57:03.555Z,80.00
2022-08-28T20:59:39.184Z,81.20
2022-08-28T21:02:28.826Z,83.60
2022-08-28T21:04:56.369Z,86.90
2022-08-28T21:07:25.090Z,89.80
2022-08-28T21:10:07.249Z,93.40
2022-08-28T21:12:39.707Z,95.80
2022-08-28T21:15:10.192Z,98.10
2022-08-28T21:17:37.563Z,99.60
2022-08-28T21:20:14.994Z,99.90
2022-08-28T21:22:43.521Z,99.90
2022-08-28T21:25:11.712Z,99.90
2022-08-28T21:27:39.740Z,99.90
2022-08-28T21:30:09.422Z,99.90
2022-08-28T21:32:36.726Z,99.90
2022-08-28T21:35:05.957Z,99.90
2022-08-28T21:37:33.449Z,99.90
2022-08-28T21:40:01.249Z,99.90
2022-08-28T21:42:28.714Z,99.90
2022-08-28T21:44:56.382Z,99.90
2022-08-28T21:47:24.947Z,99.90
2022-08-28T21:49:54.229Z,99.90
2022-08-28T21:52:23.434Z,99.90
2022-08-28T21:54:55.801Z,99.90
2022-08-28T21:57:24.324Z,99.90
2022-08-28T21:59:51.422Z,99.90
2022-08-28T22:02:18.597Z,99.90
2022-08-28T22:04:49.022Z,99.90
2022-08-28T22:07:17.320Z,99.90
2022-08-28T22:09:44.904Z,99.90
2022-08-28T22:12:12.299Z,99.90
2022-08-28T22:14:39.463Z,99.90
2022-08-28T22:17:11.343Z,99.90
2022-08-28T22:19:39.685Z,99.90
2022-08-28T22:22:26.162Z,99.90
2022-08-28T22:24:53.947Z,99.90
2022-08-28T22:27:21.203Z,99.90
2022-08-28T22:29:48.406Z,99.90
2022-08-28T22:32:15.823Z,99.90
2022-08-28T22:34:45.407Z,99.90
2022-08-28T22:37:13.359Z,99.90
2022-08-28T22:39:41.906Z,99.90
2022-08-28T22:42:10.441Z,99.90
2022-08-28T22:44:38.451Z,99.90
2022-08-28T22:47:06.305Z,99.90
2022-08-28T22:49:33.749Z,99.90
2022-08-28T22:52:03.324Z,99.90
2022-08-28T22:54:32.575Z,99.90
2022-08-28T22:56:59.679Z,99.90
2022-08-28T22:59:28.046Z,99.90
2022-08-28T23:01:55.519Z,99.90
2022-08-28T23:04:22.637Z,99.90
2022-08-28T23:06:49.807Z,99.90
2022-08-28T23:09:17.161Z,99.90
2022-08-28T23:11:44.207Z,99.90
2022-08-28T23:14:11.327Z,99.90
2022-08-28T23:16:39.438Z,99.90
2022-08-28T23:19:09.024Z,99.90
2022-08-28T23:21:39.226Z,99.90
2022-08-28T23:24:12.444Z,99.90
2022-08-28T23:26:39.685Z,99.90
2022-08-28T23:29:06.833Z,99.90
2022-08-28T23:31:34.597Z,99.90
2022-08-28T23:34:02.746Z,99.90
2022-08-28T23:36:32.773Z,99.90
2022-08-28T23:39:04.298Z,99.90
2022-08-28T23:41:32.968Z,99.90
2022-08-28T23:44:03.186Z,99.90
2022-08-28T23:46:33.640Z,99.90
2022-08-28T23:49:00.995Z,99.90
2022-08-28T23:51:29.160Z,99.90
2022-08-28T23:53:56.522Z,99.90
2022-08-28T23:56:28.194Z,99.90
2022-08-28T23:58:55.833Z,99.90
